createdAt,value
2023-04-28T00:00:19.707Z,2.20
2023-04-28T00:02:49.009Z,1.90
2023-04-28T00:05:16.290Z,1.60
2023-04-28T00:07:43.324Z,2.10
2023-04-28T00:10:10.426Z,1.90
2023-04-28T00:12:37.377Z,2.00
2023-04-28T00:15:04.735Z,2.30
2023-04-28T00:17:32.014Z,2.70
2023-04-28T00:19:59.135Z,1.70
2023-04-28T00:22:26.203Z,1.90
2023-04-28T00:24:53.140Z,1.90
2023-04-28T00:27:20.924Z,2.00
2023-04-28T00:29:47.877Z,1.90
2023-04-28T00:32:14.786Z,1.90
2023-04-28T00:34:41.802Z,2.00
2023-04-28T00:37:08.732Z,2.40
2023-04-28T00:39:36.071Z,1.90
2023-04-28T00:42:04.519Z,2.30
2023-04-28T00:44:31.572Z,2.10
2023-04-28T00:46:59.348Z,2.40
2023-04-28T00:49:26.474Z,2.20
2023-04-28T00:51:53.418Z,1.80
2023-04-28T00:54:20.644Z,1.60
2023-04-28T00:56:47.629Z,2.40
2023-04-28T00:59:14.698Z,2.30
2023-04-28T01:01:41.712Z,1.90
2023-04-28T01:04:08.929Z,1.70
2023-04-28T01:06:37.499Z,1.80
2023-04-28T01:09:06.407Z,1.60
2023-04-28T01:11:33.414Z,1.60
2023-04-28T01:14:18.866Z,2.30
2023-04-28T01:16:47.100Z,1.50
2023-04-28T01:19:23.516Z,2.70
2023-04-28T01:21:51.280Z,2.00
2023-04-28T01:24:21.995Z,2.10
2023-04-28T01:26:49.913Z,1.90
2023-04-28T01:29:16.831Z,2.10
2023-04-28T01:31:43.957Z,2.10
2023-04-28T01:34:11.026Z,1.80
2023-04-28T01:36:38.017Z,2.30
2023-04-28T01:39:05.541Z,1.50
2023-04-28T01:41:35.971Z,1.70
2023-04-28T01:44:05.061Z,2.00
2023-04-28T01:46:32.022Z,2.30
2023-04-28T01:48:59.292Z,2.10
2023-04-28T01:51:27.181Z,2.00
2023-04-28T01:53:54.250Z,2.10
2023-04-28T01:56:21.496Z,1.80
2023-04-28T01:58:49.322Z,2.70
2023-04-28T02:01:16.328Z,2.00
2023-04-28T02:03:44.484Z,1.90
2023-04-28T02:06:11.926Z,2.10
2023-04-28T02:08:38.849Z,1.80
2023-04-28T02:11:06.074Z,1.80
2023-04-28T02:13:33.125Z,1.70
2023-04-28T02:16:03.084Z,1.80
2023-04-28T02:18:30.543Z,1.60
2023-04-28T02:21:08.685Z,2.20
2023-04-28T02:23:35.795Z,2.30
2023-04-28T02:26:05.439Z,1.70
2023-04-28T02:28:32.690Z,2.90
2023-04-28T02:31:10.179Z,1.80
2023-04-28T02:33:37.905Z,1.60
2023-04-28T02:36:05.690Z,1.90
2023-04-28T02:38:32.666Z,2.60
2023-04-28T02:41:06.525Z,2.00
2023-04-28T02:43:34.296Z,2.40
2023-04-28T02:46:02.534Z,2.10
2023-04-28T02:48:29.607Z,1.70
2023-04-28T02:50:56.570Z,2.00
2023-04-28T02:53:23.582Z,2.00
2023-04-28T02:55:50.736Z,2.20
2023-04-28T02:58:18.488Z,2.40
2023-04-28T03:00:46.380Z,1.80
2023-04-28T03:03:13.764Z,2.20
2023-04-28T03:05:40.985Z,1.50
2023-04-28T03:08:08.141Z,1.90
2023-04-28T03:10:35.249Z,2.40
2023-04-28T03:13:02.385Z,1.80
2023-04-28T03:15:29.909Z,2.10
2023-04-28T03:17:57.845Z,2.20
2023-04-28T03:20:24.976Z,2.00
2023-04-28T03:22:51.894Z,2.00
2023-04-28T03:25:18.837Z,1.80
2023-04-28T03:27:48.535Z,2.50
2023-04-28T03:30:15.606Z,1.90
2023-04-28T03:32:42.957Z,2.00
2023-04-28T03:35:10.238Z,2.00
2023-04-28T03:37:37.259Z,1.70
2023-04-28T03:40:04.498Z,2.10
2023-04-28T03:42:39.232Z,1.90
2023-04-28T03:45:09.191Z,1.90
2023-04-28T03:47:36.394Z,2.10
2023-04-28T03:50:03.592Z,2.10
2023-04-28T03:52:31.121Z,2.30
2023-04-28T03:54:58.236Z,1.90
2023-04-28T03:57:25.854Z,2.20
2023-04-28T03:59:53.015Z,2.20
2023-04-28T04:02:20.220Z,2.10
2023-04-28T04:04:47.557Z,1.90
2023-04-28T04:07:14.681Z,1.80
2023-04-28T04:09:41.832Z,2.00
2023-04-28T04:12:09.465Z,2.20
2023-04-28T04:14:37.346Z,2.40
2023-04-28T04:17:04.320Z,2.60
2023-04-28T04:19:31.479Z,2.80
2023-04-28T04:21:58.582Z,2.10
2023-04-28T04:24:25.734Z,2.20
2023-04-28T04:26:52.937Z,2.30
2023-04-28T04:29:40.386Z,2.00
2023-04-28T04:32:11.715Z,3.00
2023-04-28T04:34:38.748Z,2.40
2023-04-28T04:37:06.171Z,2.20
2023-04-28T04:39:33.349Z,2.20
2023-04-28T04:42:07.286Z,2.50
2023-04-28T04:44:57.539Z,2.50
2023-04-28T04:47:28.537Z,2.40
2023-04-28T04:49:55.474Z,1.90
2023-04-28T04:52:22.817Z,2.00
2023-04-28T04:54:51.205Z,2.20
2023-04-28T04:57:18.220Z,2.20
2023-04-28T05:00:06.185Z,2.10
2023-04-28T05:02:35.129Z,1.80
2023-04-28T05:05:16.576Z,2.30
2023-04-28T05:07:49.264Z,2.30
2023-04-28T05:10:16.329Z,2.30
2023-04-28T05:12:46.760Z,2.40
2023-04-28T05:15:17.011Z,2.20
2023-04-28T05:17:50.020Z,2.90
2023-04-28T05:20:17.976Z,2.00
2023-04-28T05:22:44.877Z,2.00
2023-04-28T05:25:11.917Z,2.10
2023-04-28T05:27:41.136Z,2.10
2023-04-28T05:30:10.638Z,1.80
2023-04-28T05:32:38.309Z,2.50
2023-04-28T05:35:07.027Z,2.00
2023-04-28T05:37:34.248Z,1.60
2023-04-28T05:40:01.422Z,2.10
2023-04-28T05:42:28.633Z,1.90
2023-04-28T05:44:55.854Z,1.70
2023-04-28T05:47:26.085Z,2.20
2023-04-28T05:49:53.503Z,1.60
2023-04-28T05:52:24.490Z,2.40
2023-04-28T05:54:52.193Z,2.20
2023-04-28T05:57:20.185Z,1.70
2023-04-28T05:59:47.550Z,1.70
2023-04-28T06:02:23.244Z,1.50
2023-04-28T06:04:51.760Z,2.10
2023-04-28T06:07:19.233Z,1.70
2023-04-28T06:09:46.637Z,1.90
2023-04-28T06:12:15.572Z,1.80
2023-04-28T06:14:47.739Z,1.60
2023-04-28T06:17:21.757Z,1.80
2023-04-28T06:19:54.527Z,2.00
2023-04-28T06:22:21.646Z,2.10
2023-04-28T06:24:50.146Z,1.60
2023-04-28T06:27:21.802Z,1.50
2023-04-28T06:29:49.934Z,1.50
2023-04-28T06:32:20.663Z,1.50
2023-04-28T06:34:55.070Z,1.40
2023-04-28T06:37:24.222Z,1.90
2023-04-28T06:39:54.822Z,1.60
2023-04-28T06:42:22.810Z,1.80
2023-04-28T06:44:58.672Z,1.50
2023-04-28T06:47:30.899Z,1.60
2023-04-28T06:49:59.848Z,2.40
2023-04-28T06:52:38.488Z,1.50
2023-04-28T06:55:12.281Z,1.50
2023-04-28T06:57:43.221Z,1.70
2023-04-28T07:00:11.710Z,1.40
2023-04-28T07:02:48.545Z,1.80
2023-04-28T07:05:18.673Z,1.60
2023-04-28T07:07:46.477Z,1.40
2023-04-28T07:10:16.541Z,1.60
2023-04-28T07:12:43.669Z,1.60
2023-04-28T07:15:14.144Z,1.50
2023-04-28T07:17:49.123Z,1.40
2023-04-28T07:20:16.474Z,1.40
2023-04-28T07:22:43.775Z,2.10
2023-04-28T07:25:11.696Z,1.70
2023-04-28T07:27:40.101Z,1.50
2023-04-28T07:30:22.809Z,1.40
2023-04-28T07:32:54.551Z,2.10
2023-04-28T07:35:35.472Z,1.30
2023-04-28T07:38:02.825Z,1.60
2023-04-28T07:40:29.889Z,1.30
2023-04-28T07:42:57.394Z,1.80
2023-04-28T07:45:25.039Z,1.90
2023-04-28T07:47:51.946Z,1.80
2023-04-28T07:50:19.090Z,1.60
2023-04-28T07:52:46.059Z,2.00
2023-04-28T07:55:13.068Z,1.60
2023-04-28T07:57:42.455Z,1.50
2023-04-28T08:00:10.488Z,1.60
2023-04-28T08:02:43.608Z,1.60
2023-04-28T08:05:11.391Z,2.40
2023-04-28T08:07:41.848Z,1.40
2023-04-28T08:10:10.701Z,1.40
2023-04-28T08:12:38.522Z,1.90
2023-04-28T08:15:09.390Z,1.70
2023-04-28T08:17:37.351Z,2.30
2023-04-28T08:20:07.521Z,1.90
2023-04-28T08:22:38.973Z,1.60
2023-04-28T08:25:11.134Z,1.50
2023-04-28T08:27:41.214Z,1.60
2023-04-28T08:30:09.375Z,1.80
2023-04-28T08:32:36.746Z,1.40
2023-04-28T08:35:04.932Z,1.70
2023-04-28T08:37:36.185Z,1.70
2023-04-28T08:40:10.262Z,1.50
2023-04-28T08:42:39.098Z,1.40
2023-04-28T08:45:10.627Z,1.40
2023-04-28T08:47:38.674Z,1.40
2023-04-28T08:50:09.112Z,1.40
2023-04-28T08:52:39.000Z,1.40
2023-04-28T08:55:17.165Z,1.50
2023-04-28T08:57:45.754Z,1.30
2023-04-28T09:00:13.378Z,1.50
2023-04-28T09:02:45.448Z,1.30
2023-04-28T09:05:14.536Z,1.20
2023-04-28T09:07:42.013Z,1.10
2023-04-28T09:10:24.906Z,1.40
2023-04-28T09:13:01.874Z,1.40
2023-04-28T09:15:33.784Z,1.30
2023-04-28T09:18:04.817Z,1.40
2023-04-28T09:20:35.360Z,1.40
2023-04-28T09:23:18.911Z,1.20
2023-04-28T09:25:57.091Z,1.20
2023-04-28T09:28:24.183Z,1.50
2023-04-28T09:30:51.816Z,1.30
2023-04-28T09:33:21.871Z,1.30
2023-04-28T09:35:49.362Z,1.00
2023-04-28T09:38:23.353Z,1.10
2023-04-28T09:40:54.957Z,1.40
2023-04-28T09:43:35.264Z,1.40
2023-04-28T09:46:05.081Z,1.30
2023-04-28T09:48:39.254Z,1.10
2023-04-28T09:51:07.998Z,1.40
2023-04-28T09:53:40.988Z,1.10
2023-04-28T09:56:08.229Z,1.40
2023-04-28T09:58:36.513Z,1.30
2023-04-28T10:01:03.740Z,0.80
2023-04-28T10:03:31.511Z,1.00
2023-04-28T10:05:59.066Z,1.00
2023-04-28T10:08:27.518Z,1.10
2023-04-28T10:10:55.188Z,0.90
2023-04-28T10:13:22.902Z,1.20
2023-04-28T10:15:51.209Z,1.10
2023-04-28T10:18:18.894Z,1.20
2023-04-28T10:20:48.506Z,0.90
2023-04-28T10:23:56.379Z,1.20
2023-04-28T10:26:23.914Z,1.30
2023-04-28T10:28:52.205Z,1.10
2023-04-28T10:31:23.444Z,1.60
2023-04-28T10:33:50.643Z,1.60
2023-04-28T10:36:51.155Z,1.20
2023-04-28T10:39:18.778Z,1.20
2023-04-28T10:41:52.798Z,1.20
2023-04-28T10:44:29.067Z,1.90
2023-04-28T10:47:03.175Z,2.20
2023-04-28T10:49:55.304Z,1.50
2023-04-28T10:52:40.927Z,1.10
2023-04-28T10:55:32.980Z,1.50
2023-04-28T10:58:16.520Z,1.10
2023-04-28T11:00:45.448Z,1.20
2023-04-28T11:03:48.871Z,1.30
2023-04-28T11:07:01.267Z,1.50
2023-04-28T11:09:35.106Z,1.10
2023-04-28T11:12:11.112Z,1.00
2023-04-28T11:14:41.338Z,1.30
2023-04-28T11:17:46.960Z,1.20
2023-04-28T11:20:29.806Z,1.20
2023-04-28T11:23:03.395Z,1.30
2023-04-28T11:26:04.899Z,1.30
2023-04-28T11:28:39.425Z,1.20
2023-04-28T11:31:25.649Z,1.10
2023-04-28T11:34:09.104Z,1.10
2023-04-28T11:36:43.504Z,1.30
2023-04-28T11:39:12.411Z,1.30
2023-04-28T11:41:46.002Z,1.40
2023-04-28T11:44:31.467Z,1.30
2023-04-28T11:47:04.219Z,1.30
2023-04-28T11:49:47.729Z,1.30
2023-04-28T11:52:25.804Z,1.50
2023-04-28T11:55:03.404Z,1.20
2023-04-28T11:57:30.611Z,1.40
2023-04-28T12:00:16.723Z,2.00
2023-04-28T12:02:51.327Z,1.50
2023-04-28T12:05:33.212Z,1.70
2023-04-28T12:08:00.828Z,1.60
2023-04-28T12:10:29.369Z,1.30
2023-04-28T12:12:58.979Z,1.50
2023-04-28T12:15:41.614Z,1.70
2023-04-28T12:18:12.971Z,1.30
2023-04-28T12:20:46.725Z,1.50
2023-04-28T12:23:14.359Z,1.60
2023-04-28T12:25:45.299Z,1.20
2023-04-28T12:28:12.736Z,1.50
2023-04-28T12:30:46.822Z,1.80
2023-04-28T12:33:26.772Z,1.50
2023-04-28T12:35:59.902Z,1.80
2023-04-28T12:38:28.812Z,1.50
2023-04-28T12:41:03.562Z,1.60
2023-04-28T12:43:31.025Z,2.00
2023-04-28T12:46:04.510Z,2.00
2023-04-28T12:48:32.537Z,2.40
2023-04-28T12:50:59.580Z,2.60
2023-04-28T12:53:26.547Z,2.30
2023-04-28T12:55:56.838Z,1.80
2023-04-28T12:58:24.039Z,1.60
2023-04-28T13:01:02.318Z,2.20
2023-04-28T13:03:38.203Z,1.90
2023-04-28T13:06:06.414Z,1.60
2023-04-28T13:08:34.210Z,1.70
2023-04-28T13:11:03.075Z,1.90
2023-04-28T13:13:34.418Z,1.70
2023-04-28T13:16:01.676Z,1.50
2023-04-28T13:18:35.187Z,1.20
2023-04-28T13:21:02.558Z,1.20
2023-04-28T13:23:29.760Z,1.20
2023-04-28T13:26:05.866Z,1.20
2023-04-28T13:28:36.561Z,1.00
2023-04-28T13:31:04.930Z,1.30
2023-04-28T13:33:32.374Z,1.20
2023-04-28T13:36:00.059Z,2.00
2023-04-28T13:38:27.116Z,2.00
2023-04-28T13:40:54.435Z,1.40
2023-04-28T13:43:27.376Z,2.00
2023-04-28T13:45:58.191Z,1.80
2023-04-28T13:48:27.920Z,1.50
2023-04-28T13:51:02.691Z,1.40
2023-04-28T13:53:31.082Z,1.20
2023-04-28T13:55:58.446Z,1.10
2023-04-28T13:58:26.276Z,1.00
2023-04-28T14:00:56.381Z,1.20
2023-04-28T14:03:26.011Z,1.20
2023-04-28T14:05:55.233Z,1.40
2023-04-28T14:08:24.101Z,1.40
2023-04-28T14:10:52.524Z,1.70
2023-04-28T14:13:19.753Z,0.90
2023-04-28T14:15:57.984Z,1.40
2023-04-28T14:18:26.961Z,1.80
2023-04-28T14:20:54.706Z,1.20
2023-04-28T14:23:22.607Z,1.40
2023-04-28T14:25:50.421Z,1.70
2023-04-28T14:28:17.622Z,1.40
2023-04-28T14:30:44.798Z,1.30
2023-04-28T14:33:12.041Z,1.80
2023-04-28T14:35:39.134Z,1.40
2023-04-28T14:38:06.768Z,1.40
2023-04-28T14:40:34.387Z,2.20
2023-04-28T14:43:01.215Z,1.50
2023-04-28T14:45:28.054Z,2.20
2023-04-28T14:47:55.145Z,1.40
2023-04-28T14:50:22.339Z,1.30
2023-04-28T14:52:49.865Z,1.60
2023-04-28T14:55:16.895Z,1.30
2023-04-28T14:57:43.800Z,1.80
2023-04-28T15:00:11.279Z,1.50
2023-04-28T15:02:38.566Z,1.40
2023-04-28T15:05:06.383Z,1.50
2023-04-28T15:07:33.827Z,1.50
2023-04-28T15:10:00.851Z,1.50
2023-04-28T15:12:30.498Z,1.60
2023-04-28T15:14:58.326Z,1.30
2023-04-28T15:17:25.617Z,1.80
2023-04-28T15:19:52.734Z,1.90
2023-04-28T15:22:19.785Z,1.50
2023-04-28T15:24:46.976Z,1.40
2023-04-28T15:27:14.111Z,1.20
2023-04-28T15:29:41.101Z,1.10
2023-04-28T15:32:08.075Z,1.30
2023-04-28T15:34:35.250Z,1.20
2023-04-28T15:37:02.238Z,1.20
2023-04-28T15:39:29.244Z,1.50
2023-04-28T15:41:56.300Z,1.40
2023-04-28T15:44:23.310Z,1.70
2023-04-28T15:46:52.574Z,1.50
2023-04-28T15:49:19.617Z,1.50
2023-04-28T15:51:46.810Z,1.80
2023-04-28T15:54:13.885Z,1.60
2023-04-28T15:56:40.786Z,1.40
2023-04-28T15:59:07.664Z,1.80
2023-04-28T16:01:34.770Z,1.80
2023-04-28T16:04:02.713Z,1.70
2023-04-28T16:06:31.363Z,1.70
2023-04-28T16:08:58.335Z,1.70
2023-04-28T16:11:25.295Z,1.40
2023-04-28T16:13:52.326Z,1.70
2023-04-28T16:16:22.079Z,1.50
2023-04-28T16:18:49.232Z,1.60
2023-04-28T16:21:17.452Z,1.40
2023-04-28T16:23:44.608Z,2.00
2023-04-28T16:26:11.781Z,1.40
2023-04-28T16:28:38.775Z,1.40
2023-04-28T16:31:05.885Z,1.40
2023-04-28T16:33:32.866Z,1.40
2023-04-28T16:36:00.281Z,1.70
2023-04-28T16:38:27.203Z,1.60
2023-04-28T16:40:54.351Z,1.50
2023-04-28T16:43:21.280Z,1.60
2023-04-28T16:45:48.285Z,1.40
2023-04-28T16:48:16.176Z,1.50
2023-04-28T16:50:43.093Z,1.40
2023-04-28T16:53:10.874Z,1.40
2023-04-28T16:55:37.782Z,1.70
2023-04-28T16:58:04.887Z,1.90
2023-04-28T17:00:32.071Z,1.60
2023-04-28T17:02:59.167Z,1.70
2023-04-28T17:05:26.251Z,2.30
2023-04-28T17:07:55.165Z,1.60
2023-04-28T17:10:22.619Z,1.60
2023-04-28T17:12:49.628Z,1.50
2023-04-28T17:15:19.497Z,1.30
2023-04-28T17:17:48.988Z,1.60
2023-04-28T17:20:18.178Z,1.90
2023-04-28T17:22:45.288Z,1.60
2023-04-28T17:25:12.515Z,1.60
2023-04-28T17:27:39.619Z,1.50
2023-04-28T17:30:10.147Z,1.70
2023-04-28T17:32:37.633Z,1.60
2023-04-28T17:35:05.124Z,1.60
2023-04-28T17:37:35.850Z,2.00
2023-04-28T17:40:02.822Z,2.20
2023-04-28T17:42:31.047Z,1.90
2023-04-28T17:44:58.105Z,1.60
2023-04-28T17:47:25.071Z,1.40
2023-04-28T17:49:52.335Z,1.30
2023-04-28T17:52:19.460Z,1.30
2023-04-28T17:54:46.549Z,1.10
2023-04-28T17:57:14.521Z,1.30
2023-04-28T17:59:42.699Z,1.70
2023-04-28T18:02:10.579Z,1.00
2023-04-28T18:04:37.991Z,1.20
2023-04-28T18:07:06.578Z,1.20
2023-04-28T18:09:33.582Z,1.10
2023-04-28T18:12:03.075Z,1.50
2023-04-28T18:14:31.301Z,1.10
2023-04-28T18:16:58.467Z,1.30
2023-04-28T18:19:26.396Z,1.10
2023-04-28T18:21:55.283Z,1.00
2023-04-28T18:24:22.521Z,1.20
2023-04-28T18:26:49.636Z,1.00
2023-04-28T18:29:17.891Z,1.10
2023-04-28T18:31:45.158Z,1.20
2023-04-28T18:34:12.125Z,1.20
2023-04-28T18:36:39.016Z,1.20
2023-04-28T18:39:07.825Z,1.00
2023-04-28T18:41:35.955Z,1.70
2023-04-28T18:44:03.473Z,1.30
2023-04-28T18:46:30.812Z,1.10
2023-04-28T18:48:57.965Z,1.40
2023-04-28T18:51:24.957Z,1.20
2023-04-28T18:53:51.822Z,1.20
2023-04-28T18:56:18.706Z,1.00
2023-04-28T18:58:47.410Z,1.30
2023-04-28T19:01:17.478Z,1.10
2023-04-28T19:03:44.946Z,1.00
2023-04-28T19:06:12.191Z,1.10
2023-04-28T19:08:39.241Z,1.30
2023-04-28T19:11:07.319Z,1.10
2023-04-28T19:13:35.223Z,1.00
2023-04-28T19:16:02.972Z,1.10
2023-04-28T19:18:30.624Z,1.00
2023-04-28T19:21:01.756Z,1.10
2023-04-28T19:23:29.482Z,1.40
2023-04-28T19:25:57.536Z,1.00
2023-04-28T19:28:26.174Z,1.30
2023-04-28T19:30:54.071Z,1.10
2023-04-28T19:33:23.866Z,1.30
2023-04-28T19:35:52.493Z,1.00
2023-04-28T19:38:19.470Z,1.10
2023-04-28T19:40:46.753Z,0.90
2023-04-28T19:43:15.883Z,1.20
2023-04-28T19:45:43.145Z,1.20
2023-04-28T19:48:10.199Z,1.00
2023-04-28T19:50:38.257Z,1.00
2023-04-28T19:53:05.168Z,1.00
2023-04-28T19:55:32.361Z,1.00
2023-04-28T19:58:01.165Z,0.90
2023-04-28T20:00:32.155Z,1.20
2023-04-28T20:03:00.022Z,1.10
2023-04-28T20:05:27.257Z,1.20
2023-04-28T20:07:56.179Z,1.00
2023-04-28T20:10:23.993Z,1.20
2023-04-28T20:12:51.015Z,1.00
2023-04-28T20:15:18.544Z,1.30
2023-04-28T20:17:46.309Z,1.00
2023-04-28T20:20:13.450Z,1.10
2023-04-28T20:22:43.182Z,1.10
2023-04-28T20:25:10.559Z,1.10
2023-04-28T20:27:37.735Z,0.80
2023-04-28T20:30:05.228Z,1.20
2023-04-28T20:32:32.313Z,1.10
2023-04-28T20:34:59.510Z,1.30
2023-04-28T20:37:26.581Z,1.20
2023-04-28T20:39:53.682Z,1.00
2023-04-28T20:42:20.656Z,1.20
2023-04-28T20:44:47.674Z,1.10
2023-04-28T20:47:14.561Z,1.00
2023-04-28T20:49:42.027Z,1.30
2023-04-28T20:52:09.204Z,1.20
2023-04-28T20:54:36.566Z,1.40
2023-04-28T20:57:04.932Z,1.30
2023-04-28T20:59:32.850Z,1.10
2023-04-28T21:02:00.412Z,0.90
2023-04-28T21:04:28.435Z,1.30
2023-04-28T21:06:55.759Z,1.20
2023-04-28T21:09:25.229Z,1.00
2023-04-28T21:11:52.722Z,1.60
2023-04-28T21:14:20.249Z,1.10
2023-04-28T21:16:47.364Z,1.30
2023-04-28T21:19:14.379Z,1.30
2023-04-28T21:21:41.900Z,1.10
2023-04-28T21:24:10.254Z,1.00
2023-04-28T21:26:37.204Z,1.10
2023-04-28T21:29:04.125Z,1.10
2023-04-28T21:31:31.372Z,1.40
2023-04-28T21:33:58.238Z,1.50
2023-04-28T21:36:25.152Z,1.00
2023-04-28T21:38:52.168Z,1.10
2023-04-28T21:41:19.086Z,1.10
2023-04-28T21:43:46.074Z,1.10
2023-04-28T21:46:13.432Z,1.10
2023-04-28T21:48:40.278Z,1.00
2023-04-28T21:51:07.278Z,1.20
2023-04-28T21:53:34.483Z,1.30
2023-04-28T21:56:01.455Z,1.20
2023-04-28T21:58:28.472Z,1.10
2023-04-28T22:00:55.835Z,1.20
2023-04-28T22:03:22.995Z,1.20
2023-04-28T22:05:49.946Z,1.20
2023-04-28T22:08:17.188Z,1.00
2023-04-28T22:10:45.781Z,1.10
2023-04-28T22:13:13.150Z,1.30
2023-04-28T22:15:40.293Z,1.10
2023-04-28T22:18:08.450Z,1.20
2023-04-28T22:20:35.991Z,1.50
2023-04-28T22:23:03.090Z,1.00
2023-04-28T22:25:30.016Z,1.00
2023-04-28T22:27:57.260Z,1.00
2023-04-28T22:30:25.970Z,1.30
2023-04-28T22:32:53.599Z,1.00
2023-04-28T22:35:20.744Z,1.10
2023-04-28T22:37:47.837Z,1.10
2023-04-28T22:40:14.759Z,1.10
2023-04-28T22:42:42.212Z,1.10
2023-04-28T22:45:10.271Z,1.30
2023-04-28T22:47:38.534Z,1.20
2023-04-28T22:50:06.730Z,1.50
2023-04-28T22:52:34.366Z,0.90
2023-04-28T22:55:01.446Z,1.00
2023-04-28T22:57:28.686Z,1.00
2023-04-28T22:59:56.139Z,1.20
2023-04-28T23:02:23.434Z,1.10
2023-04-28T23:04:51.170Z,1.30
2023-04-28T23:07:18.426Z,1.40
2023-04-28T23:09:45.375Z,1.10
2023-04-28T23:12:12.280Z,1.20
2023-04-28T23:14:39.194Z,1.00
2023-04-28T23:17:06.142Z,1.20
2023-04-28T23:19:33.063Z,1.30
2023-04-28T23:22:00.034Z,1.00
2023-04-28T23:24:27.420Z,1.10
2023-04-28T23:26:54.539Z,1.10
2023-04-28T23:29:21.487Z,1.40
2023-04-28T23:31:52.643Z,1.50
2023-04-28T23:34:19.701Z,1.00
2023-04-28T23:36:46.804Z,1.40
2023-04-28T23:39:13.699Z,1.10
2023-04-28T23:41:41.156Z,1.10
2023-04-28T23:44:08.433Z,1.20
2023-04-28T23:46:35.623Z,1.20
2023-04-28T23:49:02.567Z,1.50
2023-04-28T23:51:29.825Z,1.20
2023-04-28T23:53:56.999Z,1.30
2023-04-28T23:56:24.125Z,1.30
2023-04-28T23:58:51.296Z,1.10
